Time;durP1;ratioP1;P1;durP2;ratioP2;P2;SDS_P1;SDS_P2;PMS_P1;PMS_P2;Temp;Humidity;BMP_temperature;BMP_pressure;BME280_temperature;BME280_humidity;BME280_pressure;Samples;Min_cycle;Max_cycle;Signal;HPM_P1;HPM_P2
2022/09/12 00:00:14;;;;;;;12.40;5.30;;;;;;;22.39;59.00;101186.69;4959138;28;20053;-79
2022/09/12 00:02:41;;;;;;;13.10;5.53;;;;;;;22.49;58.88;101190.91;4964556;28;20065;-79
2022/09/12 00:05:07;;;;;;;9.00;5.10;;;;;;;22.32;59.17;101157.94;4972737;28;20047;-79
2022/09/12 00:07:34;;;;;;;10.02;6.03;;;;;;;22.51;59.13;101184.25;4972653;28;20046;-79
2022/09/12 00:10:01;;;;;;;7.82;4.93;;;;;;;22.33;59.21;101154.19;4956934;28;20528;-80
2022/09/12 00:12:27;;;;;;;7.25;5.07;;;;;;;22.55;58.69;101184.66;4957356;28;20600;-80
2022/09/12 00:14:54;;;;;;;10.75;5.10;;;;;;;22.59;58.54;101175.13;4957694;28;20165;-80
2022/09/12 00:17:20;;;;;;;8.80;4.90;;;;;;;22.69;58.78;101182.84;4956310;28;20057;-79
2022/09/12 00:19:47;;;;;;;7.95;4.88;;;;;;;22.64;58.61;101175.34;4972980;28;20058;-80
2022/09/12 00:22:13;;;;;;;6.60;4.88;;;;;;;22.88;59.03;101179.38;4955814;28;20322;-79
2022/09/12 00:24:40;;;;;;;8.00;4.05;;;;;;;22.67;57.28;101142.47;4957433;28;20540;-80
2022/09/12 00:27:07;;;;;;;9.73;3.70;;;;;;;23.01;56.58;101178.59;4958031;28;20054;-79
2022/09/12 00:29:33;;;;;;;5.93;4.25;;;;;;;23.06;56.05;101181.56;4973288;28;20058;-79
2022/09/12 00:32:00;;;;;;;6.20;4.22;;;;;;;23.03;55.82;101192.78;4973797;28;20054;-79
2022/09/12 00:34:27;;;;;;;8.85;4.18;;;;;;;22.81;56.19;101192.06;4953810;28;20058;-79
2022/09/12 00:36:53;;;;;;;6.50;4.30;;;;;;;22.68;56.72;101198.25;4957508;28;20132;-80
2022/09/12 00:39:20;;;;;;;11.25;4.60;;;;;;;22.51;57.47;101188.81;4974335;28;20062;-80
2022/09/12 00:41:46;;;;;;;5.72;4.53;;;;;;;22.46;57.61;101196.72;4957180;28;20062;-79
2022/09/12 00:44:22;;;;;;;7.47;4.82;;;;;;;22.36;58.22;101197.91;4956585;28;20101;-79
2022/09/12 00:47:03;;;;;;;9.10;4.90;;;;;;;22.27;58.72;101188.28;4970192;28;20103;-80
2022/09/12 00:49:45;;;;;;;13.00;4.43;;;;;;;22.15;58.92;101179.03;4972901;28;20062;-78
2022/09/12 00:52:30;;;;;;;10.75;5.00;;;;;;;22.14;59.51;101191.72;4972762;28;20057;-80
2022/09/12 00:55:04;;;;;;;11.18;5.28;;;;;;;22.01;59.11;101171.84;4956125;28;20105;-80
2022/09/12 00:57:40;;;;;;;6.55;5.00;;;;;;;21.89;59.26;101155.34;4956213;28;20429;-79
2022/09/12 01:00:14;;;;;;;5.90;4.70;;;;;;;22.06;59.16;101189.16;4957041;28;20054;-80
2022/09/12 01:02:58;;;;;;;8.73;4.68;;;;;;;21.86;59.59;101170.09;4960371;28;20058;-78
2022/09/12 01:05:28;;;;;;;7.55;4.75;;;;;;;21.65;59.65;101129.59;4964963;28;20061;-79
2022/09/12 01:07:56;;;;;;;8.73;5.25;;;;;;;21.95;59.72;101173.50;4963728;28;20058;-80
2022/09/12 01:10:23;;;;;;;8.30;5.40;;;;;;;21.96;59.56;101175.16;4964156;28;20141;-79
2022/09/12 01:12:50;;;;;;;8.90;4.65;;;;;;;21.75;59.65;101165.25;4964424;28;20058;-79
2022/09/12 01:15:16;;;;;;;7.60;5.15;;;;;;;21.81;59.85;101183.38;4963623;28;20679;-79
2022/09/12 01:17:58;;;;;;;7.57;4.50;;;;;;;21.47;60.04;101117.44;4963890;28;20233;-80
2022/09/12 01:20:56;;;;;;;10.85;4.78;;;;;;;21.93;59.95;101187.19;4963333;28;20569;-79
2022/09/12 01:23:44;;;;;;;5.18;4.63;;;;;;;21.96;59.65;101186.78;4964997;28;20073;-79
2022/09/12 01:26:48;;;;;;;6.65;4.15;;;;;;;21.36;59.38;101088.25;4964162;28;20447;-79
2022/09/12 01:29:39;;;;;;;5.32;4.05;;;;;;;21.87;59.51;101174.47;4963760;28;20454;-79
2022/09/12 01:32:27;;;;;;;10.82;4.55;;;;;;;21.89;59.45;101180.50;4963512;28;20577;-79
2022/09/12 01:35:07;;;;;;;7.07;4.47;;;;;;;21.90;59.59;101174.09;4967753;28;20100;-78
2022/09/12 01:37:41;;;;;;;12.27;4.18;;;;;;;21.91;59.67;101170.34;4970039;28;20050;-79
2022/09/12 01:40:17;;;;;;;6.47;4.00;;;;;;;21.86;59.75;101161.16;4986497;28;20065;-78
2022/09/12 01:43:08;;;;;;;5.53;4.22;;;;;;;21.72;59.50;101142.16;4987239;28;20061;-78
2022/09/12 01:45:44;;;;;;;5.15;4.53;;;;;;;21.82;59.71;101168.84;4972796;28;20641;-79
2022/09/12 01:48:23;;;;;;;8.40;4.57;;;;;;;21.84;59.63;101171.31;4975873;28;20088;-77
2022/09/12 01:50:55;;;;;;;4.95;4.15;;;;;;;21.55;59.76;101130.81;4970001;28;20117;-79
2022/09/12 01:53:28;;;;;;;6.55;4.35;;;;;;;21.69;59.92;101155.22;4969692;28;20046;-80
2022/09/12 01:56:01;;;;;;;6.03;4.55;;;;;;;21.53;59.91;101122.06;4972244;28;20056;-79
2022/09/12 01:58:37;;;;;;;11.02;4.43;;;;;;;21.62;59.49;101141.66;4969933;28;20045;-80
2022/09/12 02:01:14;;;;;;;5.90;4.53;;;;;;;21.52;59.51;101130.34;4969932;28;20065;-80
2022/09/12 02:03:52;;;;;;;8.68;4.45;;;;;;;21.54;59.86;101155.31;4970554;28;20447;-80
2022/09/12 02:06:32;;;;;;;7.85;4.22;;;;;;;21.49;60.97;101163.16;4969812;28;20054;-80
2022/09/12 02:09:05;;;;;;;10.07;4.22;;;;;;;21.45;60.66;101167.28;4970448;28;20058;-79
2022/09/12 02:11:37;;;;;;;6.10;4.15;;;;;;;21.42;60.69;101146.88;4970150;28;20148;-80
2022/09/12 02:14:20;;;;;;;5.28;3.80;;;;;;;21.38;60.53;101123.13;4970250;28;20196;-80
2022/09/12 02:17:11;;;;;;;8.07;4.80;;;;;;;21.49;60.30;101147.78;4982750;28;20052;-81
2022/09/12 02:19:48;;;;;;;8.27;5.28;;;;;;;21.45;60.09;101149.19;4983308;28;20054;-79
2022/09/12 02:22:18;;;;;;;5.25;4.72;;;;;;;21.42;60.29;101159.56;4971624;28;20062;-79
2022/09/12 02:24:51;;;;;;;5.83;4.40;;;;;;;21.14;60.74;101133.31;4970428;28;20317;-78
2022/09/12 02:27:41;;;;;;;5.90;4.50;;;;;;;21.22;61.19;101151.25;4972035;28;20054;-79
2022/09/12 02:30:09;;;;;;;6.70;4.97;;;;;;;21.13;61.36;101145.13;4969507;28;20062;-79
2022/09/12 02:32:43;;;;;;;4.75;4.25;;;;;;;19.94;61.21;100945.09;4969541;28;20050;-79
2022/09/12 02:35:41;;;;;;;4.78;4.35;;;;;;;21.15;61.64;101135.00;4969628;28;20054;-80
2022/09/12 02:38:18;;;;;;;6.72;4.80;;;;;;;21.11;61.21;101129.13;4969468;28;20161;-79
2022/09/12 02:40:45;;;;;;;6.57;4.30;;;;;;;21.19;61.13;101138.13;4985854;28;20318;-79
2022/09/12 02:43:12;;;;;;;9.00;4.97;;;;;;;21.17;61.15;101137.50;4969979;28;20050;-80
2022/09/12 02:45:39;;;;;;;7.28;5.40;;;;;;;21.04;61.16;101127.41;4968605;28;20054;-80
2022/09/12 02:48:21;;;;;;;7.22;4.95;;;;;;;20.70;61.17;101077.66;4966385;28;20105;-79
2022/09/12 02:50:48;;;;;;;9.93;4.97;;;;;;;21.05;61.12;101147.97;4982354;28;20046;-79
2022/09/12 02:53:14;;;;;;;9.20;4.47;;;;;;;21.05;61.25;101147.97;4966457;28;20195;-79
2022/09/12 02:55:42;;;;;;;7.35;5.15;;;;;;;20.92;61.55;101127.06;4966587;28;20057;-79
2022/09/12 02:58:22;;;;;;;8.77;5.05;;;;;;;20.94;61.92;101121.47;4966628;28;20050;-79
2022/09/12 03:01:21;;;;;;;5.60;5.00;;;;;;;21.03;61.96;101145.47;4966930;28;20065;-79
2022/09/12 03:03:57;;;;;;;5.95;4.72;;;;;;;21.01;61.98;101139.41;4966051;28;20457;-80
2022/09/12 03:06:59;;;;;;;5.53;4.93;;;;;;;20.92;62.11;101130.63;4965958;28;20212;-80
2022/09/12 03:09:47;;;;;;;11.70;5.68;;;;;;;21.11;61.73;101150.72;4954385;28;20058;-80
2022/09/12 03:12:29;;;;;;;10.02;4.95;;;;;;;21.05;61.66;101151.50;4965539;28;20057;-80
2022/09/12 03:15:10;;;;;;;;;;;;;;;20.68;62.55;101094.03;4967900;28;20061;-79
2022/09/12 03:18:10;;;;;;;6.75;4.80;;;;;;;20.66;62.38;101087.16;4982920;28;19932;-79
2022/09/12 03:21:08;;;;;;;6.13;4.28;;;;;;;21.05;62.38;101145.28;4967307;28;20046;-78
2022/09/12 03:24:16;;;;;;;6.40;5.05;;;;;;;21.09;61.87;101142.00;4966151;28;20541;-78
2022/09/12 03:26:55;;;;;;;6.78;5.07;;;;;;;21.24;61.67;101146.47;4965898;28;20512;-79
2022/09/12 03:29:25;;;;;;;5.75;4.53;;;;;;;21.13;61.30;101121.66;4965664;28;20532;-78
2022/09/12 03:31:54;;;;;;;7.35;4.30;;;;;;;21.33;61.25;101153.41;4965635;28;20429;-79
2022/09/12 03:34:22;;;;;;;5.05;4.55;;;;;;;21.23;61.09;101139.41;4965339;28;20084;-79
2022/09/12 03:36:49;;;;;;;8.98;5.40;;;;;;;21.29;61.17;101152.97;4981890;28;20207;-79
2022/09/12 03:39:16;;;;;;;7.43;4.90;;;;;;;21.00;61.45;101129.66;4981635;28;20061;-79
2022/09/12 03:41:42;;;;;;;8.40;4.85;;;;;;;21.03;61.98;101140.06;4981698;28;20060;-78
2022/09/12 03:44:09;;;;;;;9.35;4.60;;;;;;;21.08;61.75;101155.69;4981720;28;20046;-80
2022/09/12 03:46:35;;;;;;;8.02;5.32;;;;;;;20.85;61.87;101123.47;4964795;28;20046;-78
2022/09/12 03:49:02;;;;;;;10.45;4.45;;;;;;;20.87;61.89;101143.00;4965431;28;20054;-78
2022/09/12 03:51:29;;;;;;;5.88;5.25;;;;;;;20.91;62.19;101157.78;4965147;28;20054;-79
2022/09/12 03:53:56;;;;;;;10.98;5.05;;;;;;;20.84;62.55;101162.28;4965788;28;20053;-79
2022/09/12 03:56:23;;;;;;;8.93;5.57;;;;;;;19.90;62.74;101016.53;4964690;28;20053;-79
2022/09/12 03:58:49;;;;;;;6.68;5.20;;;;;;;20.67;63.05;101157.09;4965084;28;20065;-80
2022/09/12 04:01:17;;;;;;;7.53;5.07;;;;;;;19.85;63.12;101031.44;4965731;28;20064;-78
2022/09/12 04:03:49;;;;;;;8.40;5.72;;;;;;;20.57;63.39;101164.66;4984813;28;20049;-79
2022/09/12 04:06:18;;;;;;;11.57;5.32;;;;;;;20.08;63.50;101099.69;4968616;28;20084;-79
2022/09/12 04:08:53;;;;;;;5.82;4.50;;;;;;;20.24;64.38;101089.56;4968485;28;20053;-79
2022/09/12 04:11:21;;;;;;;10.82;5.75;;;;;;;20.89;62.83;101174.16;4987130;28;20160;-79
2022/09/12 04:13:48;;;;;;;6.38;5.43;;;;;;;20.76;62.70;101147.03;4985958;28;20121;-79
2022/09/12 04:16:16;;;;;;;6.68;5.47;;;;;;;20.93;62.60;101158.44;4984646;28;20061;-80
2022/09/12 04:18:43;;;;;;;10.43;5.68;;;;;;;21.00;62.49;101175.53;4984410;28;20123;-79
2022/09/12 04:21:15;;;;;;;10.63;4.70;;;;;;;20.23;62.23;101052.00;4967896;28;20065;-79
2022/09/12 04:23:42;;;;;;;;;;;;;;;20.92;62.39;101168.41;4985889;28;20484;-79
2022/09/12 04:26:10;;;;;;;8.13;6.13;;;;;;;20.83;62.25;101153.34;4968547;28;20405;-79
2022/09/12 04:28:37;;;;;;;10.98;6.03;;;;;;;20.80;61.95;101140.25;4985902;28;20133;-79
2022/09/12 04:31:06;;;;;;;13.52;5.97;;;;;;;21.10;61.98;101173.34;4984501;28;20321;-79
2022/09/12 04:33:35;;;;;;;9.10;5.63;;;;;;;21.16;61.53;101173.63;4967743;28;20304;-79
2022/09/12 04:36:04;;;;;;;12.32;5.55;;;;;;;21.18;61.23;101179.66;4967366;28;20045;-79
2022/09/12 04:38:31;;;;;;;11.82;5.20;;;;;;;20.95;61.02;101145.59;4967785;28;20054;-79
2022/09/12 04:40:57;;;;;;;8.75;5.60;;;;;;;21.19;61.10;101181.31;4967964;28;20053;-79
2022/09/12 04:43:24;;;;;;;8.35;5.63;;;;;;;21.13;61.27;101191.03;4984772;28;20052;-80
2022/09/12 04:45:50;;;;;;;12.02;6.00;;;;;;;21.21;61.80;101181.97;4965242;28;20114;-79
2022/09/12 04:48:17;;;;;;;17.75;7.53;;;;;;;21.29;61.10;101184.56;4952378;28;20053;-78
2022/09/12 04:50:44;;;;;;;14.32;8.00;;;;;;;21.55;61.35;101195.66;4983493;28;20046;-78
2022/09/12 04:53:10;;;;;;;8.48;6.38;;;;;;;21.61;60.38;101193.19;4967164;28;20454;-79
2022/09/12 04:55:37;;;;;;;9.55;7.00;;;;;;;21.74;60.22;101206.78;4983489;28;20551;-78
2022/09/12 04:58:04;;;;;;;10.50;5.80;;;;;;;21.74;60.49;101199.53;4983323;28;20053;-80
2022/09/12 05:00:30;;;;;;;17.30;5.72;;;;;;;21.59;60.54;101176.34;4983550;28;20221;-79
2022/09/12 05:02:57;;;;;;;12.48;6.10;;;;;;;21.64;59.54;101192.78;4967024;28;20634;-79
2022/09/12 05:05:23;;;;;;;10.25;6.30;;;;;;;21.34;58.85;101171.31;4967020;28;20076;-80
2022/09/12 05:07:50;;;;;;;12.32;5.95;;;;;;;21.37;59.41;101180.88;4967658;28;20049;-79
2022/09/12 05:10:17;;;;;;;10.90;5.95;;;;;;;21.24;59.58;101170.78;4967851;28;20156;-79
2022/09/12 05:12:43;;;;;;;8.70;6.05;;;;;;;21.11;59.69;101160.69;4966962;28;20045;-79
2022/09/12 05:15:10;;;;;;;7.97;5.90;;;;;;;21.17;59.33;101189.63;4984773;28;20045;-79
2022/09/12 05:17:37;;;;;;;10.85;6.45;;;;;;;21.10;59.89;101208.44;4967822;28;20093;-79
2022/09/12 05:20:04;;;;;;;9.88;5.90;;;;;;;20.99;60.12;101205.41;4967088;28;20053;-80
2022/09/12 05:22:30;;;;;;;12.27;6.68;;;;;;;20.62;60.06;101162.22;4966249;28;20076;-79
2022/09/12 05:24:57;;;;;;;10.90;6.70;;;;;;;20.69;60.64;101182.03;4967074;28;20153;-79
2022/09/12 05:27:23;;;;;;;12.38;6.13;;;;;;;20.91;60.50;101209.88;4967187;28;20064;-79
2022/09/12 05:29:50;;;;;;;13.27;6.20;;;;;;;20.90;60.56;101205.53;5000244;28;20056;-80
2022/09/12 05:32:16;;;;;;;16.77;6.18;;;;;;;21.00;60.50;101224.13;4986600;28;20057;-79
2022/09/12 05:34:43;;;;;;;10.57;6.65;;;;;;;21.04;60.44;101222.69;4968119;28;20049;-79
2022/09/12 05:37:10;;;;;;;8.55;6.40;;;;;;;20.99;60.74;101221.59;4966767;28;20497;-79
2022/09/12 05:39:37;;;;;;;10.05;6.53;;;;;;;20.83;60.99;101211.88;4967516;28;20559;-77
2022/09/12 05:42:04;;;;;;;9.70;6.70;;;;;;;20.74;60.99;101218.41;4967158;28;20855;-77
2022/09/12 05:44:32;;;;;;;10.70;6.57;;;;;;;20.79;61.49;101226.75;4966820;28;20468;-77
2022/09/12 05:47:01;;;;;;;13.40;7.43;;;;;;;20.62;61.67;101200.00;4986453;28;20216;-78
2022/09/12 05:49:29;;;;;;;13.02;6.65;;;;;;;20.77;61.59;101205.34;4973219;28;20410;-77
2022/09/12 05:51:55;;;;;;;10.95;7.15;;;;;;;21.06;61.08;101239.53;4984109;28;20588;-79
2022/09/12 05:54:22;;;;;;;11.38;5.88;;;;;;;21.13;60.93;101243.16;4985220;28;20096;-78
2022/09/12 05:56:50;;;;;;;6.35;5.35;;;;;;;21.16;60.92;101239.25;4967565;28;20637;-78
2022/09/12 05:59:19;;;;;;;13.02;7.68;;;;;;;21.01;60.54;101220.38;4967059;28;20500;-79
2022/09/12 06:01:47;;;;;;;8.25;6.10;;;;;;;20.86;60.84;101196.13;4983690;28;20168;-78
2022/09/12 06:04:14;;;;;;;16.40;6.47;;;;;;;21.12;60.88;101243.38;4982845;28;20065;-77
2022/09/12 06:06:43;;;;;;;14.10;7.05;;;;;;;21.08;61.31;101253.69;4967256;28;20054;-77
2022/09/12 06:09:12;;;;;;;9.00;5.60;;;;;;;21.09;61.55;101243.72;4979570;28;20055;-77
2022/09/12 06:11:42;;;;;;;10.60;6.32;;;;;;;20.75;61.33;101182.28;4962831;28;20595;-77
2022/09/12 06:14:10;;;;;;;12.35;6.20;;;;;;;21.21;61.32;101242.19;4968782;28;20050;-78
2022/09/12 06:16:38;;;;;;;16.30;6.40;;;;;;;20.90;61.30;101180.41;4968755;28;20093;-76
2022/09/12 06:19:14;;;;;;;10.00;6.78;;;;;;;21.24;60.76;101225.63;4986039;28;20066;-77
2022/09/12 06:21:41;;;;;;;9.38;6.20;;;;;;;21.34;60.71;101247.75;4979931;28;20201;-77
2022/09/12 06:24:08;;;;;;;13.25;6.55;;;;;;;21.22;60.87;101216.88;4991261;28;20505;-76
2022/09/12 06:26:35;;;;;;;11.32;6.15;;;;;;;21.29;60.86;101233.16;5008035;28;20120;-78
2022/09/12 06:29:02;;;;;;;11.63;6.32;;;;;;;21.46;60.83;101250.00;5008422;28;20560;-78
2022/09/12 06:31:34;;;;;;;21.77;7.80;;;;;;;21.52;60.26;101241.94;4991728;28;20078;-79
2022/09/12 06:34:04;;;;;;;10.85;6.93;;;;;;;20.85;60.15;101118.06;4991555;28;20053;-80
2022/09/12 06:36:33;;;;;;;16.20;6.70;;;;;;;21.64;59.63;101236.03;4990495;28;20275;-79
2022/09/12 06:39:06;;;;;;;12.18;6.40;;;;;;;21.48;59.70;101204.69;5009147;28;20595;-79
2022/09/12 06:41:56;;;;;;;12.95;6.15;;;;;;;21.68;59.65;101226.50;5008835;28;20050;-77
2022/09/12 06:44:22;;;;;;;8.57;6.55;;;;;;;21.74;59.57;101236.53;4991618;28;20104;-80
2022/09/12 06:46:49;;;;;;;9.38;6.05;;;;;;;21.73;58.82;101218.66;4991297;28;20041;-80
2022/09/12 06:49:16;;;;;;;11.25;5.88;;;;;;;21.96;58.79;101238.16;5008874;28;20068;-79
2022/09/12 06:51:43;;;;;;;8.10;5.03;;;;;;;21.91;58.89;101200.06;4991442;28;20088;-76
2022/09/12 06:54:14;;;;;;;9.38;5.00;;;;;;;22.00;57.87;101205.34;4991685;28;20050;-77
2022/09/12 06:56:41;;;;;;;9.70;5.15;;;;;;;22.24;58.07;101237.38;5008759;28;20081;-78
2022/09/12 06:59:08;;;;;;;13.07;5.05;;;;;;;22.17;58.29;101214.81;5008822;28;20061;-77
2022/09/12 07:01:35;;;;;;;14.65;4.90;;;;;;;22.27;58.57;101219.91;5007241;28;20057;-76
2022/09/12 07:04:03;;;;;;;6.38;4.82;;;;;;;22.21;58.73;101193.63;4991131;28;20140;-80
2022/09/12 07:06:36;;;;;;;10.45;4.65;;;;;;;22.52;57.78;101223.78;5007742;28;20046;-80
2022/09/12 07:09:05;;;;;;;16.40;4.78;;;;;;;22.57;57.26;101220.47;4991361;28;20144;-77
2022/09/12 07:11:35;;;;;;;9.82;4.85;;;;;;;22.67;57.13;101220.09;4991186;28;20146;-77
2022/09/12 07:14:03;;;;;;;6.03;4.80;;;;;;;22.40;55.64;101161.31;4991055;28;20050;-78
2022/09/12 07:16:33;;;;;;;9.73;4.15;;;;;;;22.72;55.80;101218.47;4990563;28;20060;-77
2022/09/12 07:19:01;;;;;;;7.57;4.32;;;;;;;22.71;56.31;101203.25;5008694;28;20078;-78
2022/09/12 07:21:28;;;;;;;8.00;4.32;;;;;;;22.85;56.21;101206.03;5006543;28;20441;-76
2022/09/12 07:23:56;;;;;;;8.73;3.90;;;;;;;22.71;55.45;101178.06;5007230;28;20052;-77
2022/09/12 07:26:25;;;;;;;4.95;3.85;;;;;;;23.02;56.04;101180.28;4990842;28;20053;-78
2022/09/12 07:28:54;;;;;;;8.38;4.90;;;;;;;23.18;55.96;101189.91;5007188;28;20152;-78
2022/09/12 07:31:38;;;;;;;10.98;4.30;;;;;;;23.34;55.19;101199.53;5006478;28;20053;-75
2022/09/12 07:34:05;;;;;;;5.22;3.80;;;;;;;23.59;56.38;101210.59;4990676;28;20137;-77
2022/09/12 07:36:32;;;;;;;8.18;4.95;;;;;;;23.42;55.02;101170.38;5006433;28;20134;-76
2022/09/12 07:38:58;;;;;;;7.25;4.07;;;;;;;23.78;55.56;101200.81;5008051;28;20045;-76
2022/09/12 07:41:28;;;;;;;4.55;4.10;;;;;;;23.61;55.88;101143.47;4990947;28;20675;-76
2022/09/12 07:43:57;;;;;;;8.18;4.65;;;;;;;24.09;54.98;101209.13;5007032;28;20052;-77
2022/09/12 07:46:24;;;;;;;6.00;4.72;;;;;;;24.10;52.80;101202.69;5003292;28;20055;-77
2022/09/12 07:48:56;;;;;;;6.13;4.18;;;;;;;24.15;54.38;101220.19;4979981;28;20050;-76
2022/09/12 07:51:24;;;;;;;8.70;4.00;;;;;;;24.08;54.01;101212.91;5009137;28;20053;-80
2022/09/12 07:53:55;;;;;;;7.75;4.68;;;;;;;23.99;54.62;101195.19;5001164;28;20509;-75
2022/09/12 07:56:23;;;;;;;7.70;4.00;;;;;;;24.34;54.83;101219.31;4993980;28;20236;-76
2022/09/12 07:58:58;;;;;;;11.70;5.30;;;;;;;24.27;52.13;101221.19;5010753;28;20119;-77
2022/09/12 08:01:25;;;;;;;10.10;5.05;;;;;;;24.20;52.71;101232.09;4996404;28;20115;-76
2022/09/12 08:03:58;;;;;;;9.55;4.50;;;;;;;24.10;52.47;101228.94;5009662;28;20073;-78
2022/09/12 08:06:29;;;;;;;18.65;5.18;;;;;;;24.00;52.55;101232.09;4992774;28;20456;-78
2022/09/12 08:08:57;;;;;;;10.98;4.80;;;;;;;23.63;52.72;101166.59;4989966;28;20046;-77
2022/09/12 08:11:27;;;;;;;5.00;4.00;;;;;;;23.93;53.63;101209.56;5006549;28;20132;-77
2022/09/12 08:13:55;;;;;;;9.20;3.85;;;;;;;24.10;52.02;101227.09;5008440;28;20046;-77
2022/09/12 08:16:25;;;;;;;5.68;4.28;;;;;;;24.17;52.14;101245.22;5007675;28;20565;-77
2022/09/12 08:18:52;;;;;;;5.97;3.83;;;;;;;24.20;51.82;101242.06;5005874;28;20050;-77
2022/09/12 08:21:27;;;;;;;8.75;4.15;;;;;;;24.21;51.70;101238.34;4986932;28;20058;-77
2022/09/12 08:23:59;;;;;;;6.25;4.38;;;;;;;24.28;51.51;101236.44;4986136;28;20573;-77
2022/09/12 08:26:27;;;;;;;10.57;4.57;;;;;;;24.28;52.08;101229.13;4986528;28;20154;-78
2022/09/12 08:28:54;;;;;;;5.10;3.80;;;;;;;23.99;51.90;101186.22;4989294;28;20267;-78
2022/09/12 08:31:22;;;;;;;4.68;4.18;;;;;;;24.30;52.45;101231.66;4997869;28;20049;-77
2022/09/12 08:33:49;;;;;;;7.13;4.35;;;;;;;24.19;52.61;101207.88;4985686;28;20050;-77
2022/09/12 08:36:19;;;;;;;6.35;3.85;;;;;;;24.37;51.94;101227.03;4985817;28;20061;-76
2022/09/12 08:38:49;;;;;;;7.90;4.00;;;;;;;24.51;52.11;101225.97;5005331;28;20082;-76
2022/09/12 08:41:37;;;;;;;4.90;3.60;;;;;;;24.49;51.62;101241.66;4989379;28;20076;-77
2022/09/12 08:44:16;;;;;;;3.97;3.13;;;;;;;24.52;52.41;101241.22;5004693;28;20104;-76
2022/09/12 08:46:45;;;;;;;6.20;3.90;;;;;;;24.50;51.70;101221.59;5002380;28;20169;-78
2022/09/12 08:49:24;;;;;;;5.65;3.97;;;;;;;24.57;51.66;101231.59;4980900;28;20058;-78
2022/09/12 08:51:51;;;;;;;6.40;3.88;;;;;;;24.75;53.27;101229.00;5005782;28;20128;-77
2022/09/12 08:54:22;;;;;;;8.98;4.43;;;;;;;24.59;52.74;101191.50;4989490;28;20054;-77
2022/09/12 08:56:49;;;;;;;;;;;;;;;24.95;51.66;101240.66;4989649;28;20564;-77
2022/09/12 08:59:16;;;;;;;9.45;3.58;;;;;;;24.58;52.01;101182.50;4999445;28;20542;-78
2022/09/12 09:01:44;;;;;;;7.45;4.40;;;;;;;25.07;52.88;101231.78;4991616;28;20057;-78
2022/09/12 09:04:30;;;;;;;5.28;3.72;;;;;;;25.40;52.66;101225.38;5002280;28;20049;-78
2022/09/12 09:07:03;;;;;;;4.80;3.58;;;;;;;25.54;52.56;101235.09;5011177;28;20514;-77
2022/09/12 09:09:36;;;;;;;6.60;4.75;;;;;;;25.82;51.42;101241.97;5008834;28;20152;-76
2022/09/12 09:12:27;;;;;;;5.07;3.17;;;;;;;25.65;51.98;101223.50;5008150;28;20482;-76
2022/09/12 09:15:04;;;;;;;4.75;3.83;;;;;;;25.54;51.74;101233.22;4988804;28;20362;-78
2022/09/12 09:17:48;;;;;;;5.22;4.40;;;;;;;25.48;50.60;101239.50;5006026;28;20050;-78
2022/09/12 09:20:27;;;;;;;6.32;4.55;;;;;;;25.57;49.49;101226.50;4991174;28;20042;-77
2022/09/12 09:23:14;;;;;;;12.35;3.97;;;;;;;25.60;49.34;101228.75;4987735;28;20125;-78
2022/09/12 09:25:49;;;;;;;12.02;3.85;;;;;;;25.58;48.85;101212.69;4989391;28;20417;-77
2022/09/12 09:28:30;;;;;;;7.32;4.25;;;;;;;25.62;50.35;101190.50;4988910;28;20045;-76
2022/09/12 09:30:57;;;;;;;4.90;3.60;;;;;;;25.73;50.66;101204.19;5005055;28;20145;-77
2022/09/12 09:33:29;;;;;;;5.88;3.83;;;;;;;24.82;50.55;101017.22;5005375;28;20061;-77
2022/09/12 09:36:15;;;;;;;4.93;3.25;;;;;;;26.40;50.17;101200.84;5008463;28;20056;-75
2022/09/12 09:39:12;;;;;;;12.05;3.85;;;;;;;26.22;47.32;101194.34;4988221;28;20104;-77
2022/09/12 09:41:52;;;;;;;7.78;4.03;;;;;;;26.50;48.19;101217.47;4988123;28;20056;-76
2022/09/12 09:44:19;;;;;;;6.35;3.55;;;;;;;26.61;49.45;101197.69;4988468;28;20072;-78
2022/09/12 09:46:53;;;;;;;6.00;4.22;;;;;;;26.19;49.24;101113.16;4999499;28;20053;-77
2022/09/12 09:49:21;;;;;;;8.30;3.80;;;;;;;26.32;46.53;101180.19;5012907;28;20549;-76
2022/09/12 09:51:48;;;;;;;5.60;3.50;;;;;;;26.38;47.35;101184.72;5005253;28;20054;-77
2022/09/12 09:54:23;;;;;;;6.38;3.47;;;;;;;26.78;48.43;101216.13;4987901;28;20351;-78
2022/09/12 09:56:50;;;;;;;4.32;3.15;;;;;;;26.60;47.24;101184.28;5009480;28;20127;-76
2022/09/12 09:59:30;;;;;;;4.60;3.80;;;;;;;26.98;47.00;101211.25;4991704;28;20501;-78
2022/09/12 10:02:02;;;;;;;4.72;3.13;;;;;;;26.87;46.91;101190.25;4987416;28;20070;-78
2022/09/12 10:04:32;;;;;;;6.75;3.42;;;;;;;27.07;46.50;101193.50;4992502;28;20086;-77
2022/09/12 10:07:05;;;;;;;4.93;3.22;;;;;;;27.12;46.92;101186.53;5010127;28;20047;-78
2022/09/12 10:09:33;;;;;;;3.97;3.35;;;;;;;27.38;46.88;101188.03;4989984;28;20070;-79
2022/09/12 10:12:19;;;;;;;5.45;3.10;;;;;;;27.19;47.46;101162.78;5005572;28;20049;-77
2022/09/12 10:14:57;;;;;;;2.60;2.40;;;;;;;27.38;46.52;101204.41;5008144;28;20054;-79
2022/09/12 10:17:50;;;;;;;7.68;3.17;;;;;;;27.35;46.81;101197.53;4993902;28;20141;-78
2022/09/12 10:20:40;;;;;;;5.05;3.50;;;;;;;27.50;44.08;101197.06;5002660;28;20157;-77
2022/09/12 10:23:33;;;;;;;3.28;2.72;;;;;;;27.52;46.00;101177.75;4997554;28;20060;-77
2022/09/12 10:26:03;;;;;;;4.28;3.20;;;;;;;27.32;45.48;101140.75;4993533;28;20058;-77
2022/09/12 10:28:42;;;;;;;7.85;3.05;;;;;;;26.90;42.39;101048.13;4989669;28;20137;-79
2022/09/12 10:31:14;;;;;;;5.18;2.67;;;;;;;27.91;45.05;101188.03;5008920;28;20054;-79
2022/09/12 10:33:46;;;;;;;6.43;2.90;;;;;;;28.17;43.04;101195.94;4988572;28;20104;-78
2022/09/12 10:36:14;;;;;;;3.83;2.50;;;;;;;28.25;43.34;101190.94;5008615;28;20692;-78
2022/09/12 10:38:48;;;;;;;4.07;2.78;;;;;;;28.39;43.87;101186.06;4991198;28;20076;-78
2022/09/12 10:41:15;;;;;;;3.47;2.53;;;;;;;28.34;41.21;101172.31;4993769;28;20050;-78
2022/09/12 10:43:42;;;;;;;5.15;2.78;;;;;;;28.36;41.97;101142.03;4988157;28;20138;-78
2022/09/12 10:46:18;;;;;;;7.85;3.10;;;;;;;28.51;42.67;101180.59;5005218;28;20180;-78
2022/09/12 10:48:47;;;;;;;3.35;2.60;;;;;;;28.13;40.73;101110.97;5004798;28;20137;-78
2022/09/12 10:51:26;;;;;;;;;;;;;;;29.03;42.63;101175.06;4991347;28;20137;-78
2022/09/12 10:54:01;;;;;;;2.95;2.67;;;;;;;28.70;43.70;101179.34;4988907;28;19961;-78
2022/09/12 10:56:52;;;;;;;4.15;2.85;;;;;;;28.59;43.09;101161.09;5005376;28;20139;-79
2022/09/12 10:59:33;;;;;;;3.80;3.00;;;;;;;28.94;43.55;101171.06;4991970;28;20061;-78
2022/09/12 11:02:45;;;;;;;3.50;3.20;;;;;;;28.52;41.74;101169.44;5004439;28;20180;-77
2022/09/12 11:05:35;;;;;;;3.33;2.60;;;;;;;28.52;43.94;101165.84;5002354;28;20141;-78
2022/09/12 11:08:54;;;;;;;3.33;2.80;;;;;;;28.42;43.53;101173.81;4966985;28;20050;-78
2022/09/12 11:11:56;;;;;;;5.30;2.40;;;;;;;28.25;39.50;101152.72;4959259;28;20051;-78
2022/09/12 11:14:35;;;;;;;5.22;2.40;;;;;;;28.41;42.47;101123.84;4997792;28;20089;-79
2022/09/12 11:17:05;;;;;;;3.63;2.50;;;;;;;28.57;40.88;101163.25;4968612;28;20114;-78
2022/09/12 11:19:55;;;;;;;6.85;2.38;;;;;;;28.70;40.59;101168.41;4986311;28;20050;-80
2022/09/12 11:22:31;;;;;;;5.22;2.80;;;;;;;28.82;37.37;101164.81;5007010;28;20064;-78
2022/09/12 11:25:19;;;;;;;4.30;2.47;;;;;;;29.02;41.13;101147.97;5008750;28;20490;-78
2022/09/12 11:27:52;;;;;;;5.32;2.90;;;;;;;29.26;40.94;101152.25;5007298;28;20246;-77
2022/09/12 11:30:18;;;;;;;3.80;2.80;;;;;;;29.03;41.38;101166.88;4987951;28;20054;-78
2022/09/12 11:33:07;;;;;;;4.13;2.08;;;;;;;28.96;42.23;101163.44;5003956;28;20042;-79
2022/09/12 11:35:46;;;;;;;3.08;2.50;;;;;;;29.09;41.51;101149.50;4989643;28;20062;-78
2022/09/12 11:38:32;;;;;;;3.28;2.95;;;;;;;28.65;43.06;101100.03;4988663;28;20061;-79
2022/09/12 11:41:06;;;;;;;4.60;2.85;;;;;;;28.55;40.95;101121.69;5002238;28;20069;-79
2022/09/12 11:43:44;;;;;;;4.05;2.90;;;;;;;28.59;40.31;101152.91;4970431;28;20180;-80
2022/09/12 11:46:37;;;;;;;8.02;2.85;;;;;;;29.10;40.13;101145.66;4968442;28;20055;-79
2022/09/12 11:49:14;;;;;;;4.65;2.28;;;;;;;28.84;37.39;101091.63;4994165;28;20498;-80
2022/09/12 11:51:49;;;;;;;5.75;2.78;;;;;;;28.22;39.04;100947.66;4988101;28;20560;-80